sensor_id;sensor_type;location;lat;lon;timestamp;P1;durP1;ratioP1;P2;durP2;ratioP2
23506;SDS011;11930;53.076;18.250;2023-03-21T00:33:36;8.37;;;4.37;;
23506;SDS011;11930;53.076;18.250;2023-03-21T00:36:04;8.53;;;4.50;;
23506;SDS011;11930;53.076;18.250;2023-03-21T00:38:32;10.93;;;5.53;;
23506;SDS011;11930;53.076;18.250;2023-03-21T00:40:58;10.30;;;5.03;;
23506;SDS011;11930;53.076;18.250;2023-03-21T00:43:25;12.30;;;5.73;;
23506;SDS011;11930;53.076;18.250;2023-03-21T00:45:55;12.83;;;5.83;;
23506;SDS011;11930;53.076;18.250;2023-03-21T00:48:25;11.43;;;5.73;;
23506;SDS011;11930;53.076;18.250;2023-03-21T00:50:53;11.37;;;5.43;;
23506;SDS011;11930;53.076;18.250;2023-03-21T00:53:21;12.67;;;6.03;;
23506;SDS011;11930;53.076;18.250;2023-03-21T00:55:48;16.50;;;6.73;;
23506;SDS011;11930;53.076;18.250;2023-03-21T00:58:15;15.27;;;7.20;;
23506;SDS011;11930;53.076;18.250;2023-03-21T01:00:42;10.60;;;6.70;;
23506;SDS011;11930;53.076;18.250;2023-03-21T01:03:12;14.33;;;6.60;;
23506;SDS011;11930;53.076;18.250;2023-03-21T01:05:40;16.93;;;8.00;;
23506;SDS011;11930;53.076;18.250;2023-03-21T01:08:35;16.03;;;7.57;;
23506;SDS011;11930;53.076;18.250;2023-03-21T01:11:04;15.57;;;6.83;;
23506;SDS011;11930;53.076;18.250;2023-03-21T01:13:32;12.80;;;6.97;;
23506;SDS011;11930;53.076;18.250;2023-03-21T01:15:59;13.60;;;6.50;;
23506;SDS011;11930;53.076;18.250;2023-03-21T01:18:27;12.73;;;6.83;;
23506;SDS011;11930;53.076;18.250;2023-03-21T01:20:55;10.23;;;5.93;;
23506;SDS011;11930;53.076;18.250;2023-03-21T01:23:23;9.60;;;5.90;;
23506;SDS011;11930;53.076;18.250;2023-03-21T01:25:55;9.07;;;5.47;;
23506;SDS011;11930;53.076;18.250;2023-03-21T01:28:21;9.50;;;5.73;;
23506;SDS011;11930;53.076;18.250;2023-03-21T01:30:51;7.73;;;5.20;;
23506;SDS011;11930;53.076;18.250;2023-03-21T01:33:17;10.00;;;5.37;;
23506;SDS011;11930;53.076;18.250;2023-03-21T01:35:45;9.70;;;5.53;;
23506;SDS011;11930;53.076;18.250;2023-03-21T01:38:12;9.03;;;5.57;;
23506;SDS011;11930;53.076;18.250;2023-03-21T01:40:43;9.37;;;5.93;;
23506;SDS011;11930;53.076;18.250;2023-03-21T01:43:26;7.47;;;4.90;;
23506;SDS011;11930;53.076;18.250;2023-03-21T01:46:42;7.83;;;5.20;;
23506;SDS011;11930;53.076;18.250;2023-03-21T01:49:05;9.00;;;5.20;;
23506;SDS011;11930;53.076;18.250;2023-03-21T01:51:44;9.33;;;5.07;;
23506;SDS011;11930;53.076;18.250;2023-03-21T01:54:31;8.83;;;5.47;;
23506;SDS011;11930;53.076;18.250;2023-03-21T01:57:03;8.83;;;5.37;;
23506;SDS011;11930;53.076;18.250;2023-03-21T01:59:48;10.57;;;6.17;;
23506;SDS011;11930;53.076;18.250;2023-03-21T02:02:49;12.47;;;7.50;;
23506;SDS011;11930;53.076;18.250;2023-03-21T02:06:00;13.13;;;6.50;;
23506;SDS011;11930;53.076;18.250;2023-03-21T02:08:34;12.20;;;6.40;;
23506;SDS011;11930;53.076;18.250;2023-03-21T02:11:06;11.40;;;6.67;;
23506;SDS011;11930;53.076;18.250;2023-03-21T02:13:40;10.70;;;6.27;;
23506;SDS011;11930;53.076;18.250;2023-03-21T02:28:25;11.30;;;6.40;;
23506;SDS011;11930;53.076;18.250;2023-03-21T02:39:09;12.23;;;7.57;;
23506;SDS011;11930;53.076;18.250;2023-03-21T02:44:32;13.90;;;7.47;;
23506;SDS011;11930;53.076;18.250;2023-03-21T02:47:08;13.27;;;7.90;;
23506;SDS011;11930;53.076;18.250;2023-03-21T02:49:41;14.67;;;8.03;;
23506;SDS011;11930;53.076;18.250;2023-03-21T02:52:14;14.47;;;7.63;;
23506;SDS011;11930;53.076;18.250;2023-03-21T02:54:44;14.07;;;8.53;;
23506;SDS011;11930;53.076;18.250;2023-03-21T02:57:18;14.83;;;8.47;;
23506;SDS011;11930;53.076;18.250;2023-03-21T02:59:47;14.27;;;8.27;;
23506;SDS011;11930;53.076;18.250;2023-03-21T03:02:16;13.33;;;8.00;;
23506;SDS011;11930;53.076;18.250;2023-03-21T03:04:49;15.57;;;8.40;;
23506;SDS011;11930;53.076;18.250;2023-03-21T03:12:21;12.80;;;8.07;;
23506;SDS011;11930;53.076;18.250;2023-03-21T03:15:54;14.23;;;8.00;;
23506;SDS011;11930;53.076;18.250;2023-03-21T03:22:03;14.37;;;8.63;;
23506;SDS011;11930;53.076;18.250;2023-03-21T03:24:41;15.37;;;9.77;;
23506;SDS011;11930;53.076;18.250;2023-03-21T03:27:18;12.37;;;8.30;;
23506;SDS011;11930;53.076;18.250;2023-03-21T03:29:51;11.97;;;7.90;;
23506;SDS011;11930;53.076;18.250;2023-03-21T03:32:30;13.43;;;8.57;;
23506;SDS011;11930;53.076;18.250;2023-03-21T03:35:20;12.30;;;7.80;;
23506;SDS011;11930;53.076;18.250;2023-03-21T03:37:52;11.23;;;7.27;;
23506;SDS011;11930;53.076;18.250;2023-03-21T03:43:33;12.10;;;7.80;;
23506;SDS011;11930;53.076;18.250;2023-03-21T03:46:12;11.80;;;7.57;;
23506;SDS011;11930;53.076;18.250;2023-03-21T03:49:22;12.40;;;7.87;;
23506;SDS011;11930;53.076;18.250;2023-03-21T03:51:53;13.73;;;8.93;;
23506;SDS011;11930;53.076;18.250;2023-03-21T03:54:48;13.67;;;8.23;;
23506;SDS011;11930;53.076;18.250;2023-03-21T03:57:17;11.90;;;7.97;;
23506;SDS011;11930;53.076;18.250;2023-03-21T03:59:44;13.30;;;8.73;;
23506;SDS011;11930;53.076;18.250;2023-03-21T04:02:24;12.50;;;8.50;;
23506;SDS011;11930;53.076;18.250;2023-03-21T04:04:50;15.70;;;8.37;;
23506;SDS011;11930;53.076;18.250;2023-03-21T04:07:19;16.80;;;8.67;;
23506;SDS011;11930;53.076;18.250;2023-03-21T04:09:47;14.63;;;8.90;;
23506;SDS011;11930;53.076;18.250;2023-03-21T04:12:17;16.00;;;8.93;;
23506;SDS011;11930;53.076;18.250;2023-03-21T04:15:01;15.30;;;8.80;;
23506;SDS011;11930;53.076;18.250;2023-03-21T04:17:29;16.37;;;8.97;;
23506;SDS011;11930;53.076;18.250;2023-03-21T04:19:57;17.47;;;9.40;;
23506;SDS011;11930;53.076;18.250;2023-03-21T04:22:24;17.33;;;10.53;;
23506;SDS011;11930;53.076;18.250;2023-03-21T04:24:52;19.53;;;9.83;;
23506;SDS011;11930;53.076;18.250;2023-03-21T04:27:50;19.60;;;10.47;;
23506;SDS011;11930;53.076;18.250;2023-03-21T04:30:52;20.13;;;10.17;;
23506;SDS011;11930;53.076;18.250;2023-03-21T04:33:23;21.33;;;10.83;;
23506;SDS011;11930;53.076;18.250;2023-03-21T04:35:54;22.10;;;11.10;;
23506;SDS011;11930;53.076;18.250;2023-03-21T04:38:22;26.70;;;12.87;;
23506;SDS011;11930;53.076;18.250;2023-03-21T04:40:49;25.33;;;12.17;;
23506;SDS011;11930;53.076;18.250;2023-03-21T04:43:16;25.50;;;11.63;;
23506;SDS011;11930;53.076;18.250;2023-03-21T04:45:43;27.73;;;12.67;;
23506;SDS011;11930;53.076;18.250;2023-03-21T04:48:09;33.90;;;14.37;;
23506;SDS011;11930;53.076;18.250;2023-03-21T04:50:39;28.20;;;13.47;;
23506;SDS011;11930;53.076;18.250;2023-03-21T04:53:06;23.20;;;11.77;;
23506;SDS011;11930;53.076;18.250;2023-03-21T04:55:32;31.00;;;13.23;;
23506;SDS011;11930;53.076;18.250;2023-03-21T04:57:58;39.67;;;16.67;;
23506;SDS011;11930;53.076;18.250;2023-03-21T05:00:25;46.70;;;17.07;;
23506;SDS011;11930;53.076;18.250;2023-03-21T05:02:52;59.57;;;19.70;;
23506;SDS011;11930;53.076;18.250;2023-03-21T05:05:19;45.43;;;17.20;;
23506;SDS011;11930;53.076;18.250;2023-03-21T05:07:46;57.20;;;18.60;;
23506;SDS011;11930;53.076;18.250;2023-03-21T05:10:16;45.90;;;18.03;;
23506;SDS011;11930;53.076;18.250;2023-03-21T05:13:06;50.77;;;19.63;;
23506;SDS011;11930;53.076;18.250;2023-03-21T05:15:33;48.47;;;18.23;;
23506;SDS011;11930;53.076;18.250;2023-03-21T05:18:38;39.53;;;16.20;;
23506;SDS011;11930;53.076;18.250;2023-03-21T05:21:14;35.33;;;15.10;;
23506;SDS011;11930;53.076;18.250;2023-03-21T05:24:20;76.67;;;26.70;;
23506;SDS011;11930;53.076;18.250;2023-03-21T05:29:39;126.40;;;36.63;;
23506;SDS011;11930;53.076;18.250;2023-03-21T05:32:07;95.23;;;31.43;;
23506;SDS011;11930;53.076;18.250;2023-03-21T05:34:33;90.87;;;28.43;;
23506;SDS011;11930;53.076;18.250;2023-03-21T05:37:01;75.07;;;25.27;;
23506;SDS011;11930;53.076;18.250;2023-03-21T05:39:40;60.33;;;21.20;;
23506;SDS011;11930;53.076;18.250;2023-03-21T05:42:13;50.17;;;19.47;;
23506;SDS011;11930;53.076;18.250;2023-03-21T05:44:39;38.37;;;16.20;;
23506;SDS011;11930;53.076;18.250;2023-03-21T05:47:08;42.40;;;16.57;;
23506;SDS011;11930;53.076;18.250;2023-03-21T05:49:43;38.53;;;17.33;;
23506;SDS011;11930;53.076;18.250;2023-03-21T05:52:10;39.47;;;17.37;;
23506;SDS011;11930;53.076;18.250;2023-03-21T05:54:36;55.80;;;21.53;;
23506;SDS011;11930;53.076;18.250;2023-03-21T05:57:03;84.20;;;30.40;;
23506;SDS011;11930;53.076;18.250;2023-03-21T05:59:50;107.03;;;34.03;;
23506;SDS011;11930;53.076;18.250;2023-03-21T06:02:18;54.57;;;22.00;;
23506;SDS011;11930;53.076;18.250;2023-03-21T06:04:46;41.47;;;17.17;;
23506;SDS011;11930;53.076;18.250;2023-03-21T06:07:12;34.03;;;16.47;;
23506;SDS011;11930;53.076;18.250;2023-03-21T06:09:39;32.93;;;15.07;;
23506;SDS011;11930;53.076;18.250;2023-03-21T06:12:07;33.87;;;15.83;;
23506;SDS011;11930;53.076;18.250;2023-03-21T06:14:46;33.57;;;14.97;;
23506;SDS011;11930;53.076;18.250;2023-03-21T06:17:20;35.33;;;15.90;;
23506;SDS011;11930;53.076;18.250;2023-03-21T06:19:52;31.67;;;14.23;;
23506;SDS011;11930;53.076;18.250;2023-03-21T06:22:30;29.63;;;14.30;;
23506;SDS011;11930;53.076;18.250;2023-03-21T06:24:59;31.80;;;15.43;;
23506;SDS011;11930;53.076;18.250;2023-03-21T06:27:27;32.40;;;15.00;;
23506;SDS011;11930;53.076;18.250;2023-03-21T06:29:54;25.60;;;13.27;;
23506;SDS011;11930;53.076;18.250;2023-03-21T06:32:23;22.00;;;11.53;;
23506;SDS011;11930;53.076;18.250;2023-03-21T06:34:54;17.73;;;10.60;;
23506;SDS011;11930;53.076;18.250;2023-03-21T06:37:21;18.20;;;10.60;;
23506;SDS011;11930;53.076;18.250;2023-03-21T06:39:47;17.87;;;10.40;;
23506;SDS011;11930;53.076;18.250;2023-03-21T06:42:14;19.27;;;10.30;;
23506;SDS011;11930;53.076;18.250;2023-03-21T06:44:41;15.67;;;8.97;;
23506;SDS011;11930;53.076;18.250;2023-03-21T06:47:12;14.70;;;9.10;;
23506;SDS011;11930;53.076;18.250;2023-03-21T06:49:40;15.87;;;9.10;;
23506;SDS011;11930;53.076;18.250;2023-03-21T06:52:09;14.93;;;9.10;;
23506;SDS011;11930;53.076;18.250;2023-03-21T06:54:36;14.23;;;8.93;;
23506;SDS011;11930;53.076;18.250;2023-03-21T06:57:14;13.90;;;8.60;;
23506;SDS011;11930;53.076;18.250;2023-03-21T06:59:40;15.93;;;9.20;;
23506;SDS011;11930;53.076;18.250;2023-03-21T07:02:09;14.57;;;8.17;;
23506;SDS011;11930;53.076;18.250;2023-03-21T07:04:42;16.87;;;8.53;;
23506;SDS011;11930;53.076;18.250;2023-03-21T07:07:15;12.63;;;8.30;;
23506;SDS011;11930;53.076;18.250;2023-03-21T07:09:41;15.83;;;8.73;;
23506;SDS011;11930;53.076;18.250;2023-03-21T07:12:08;12.33;;;7.67;;
23506;SDS011;11930;53.076;18.250;2023-03-21T07:14:59;13.27;;;7.47;;
23506;SDS011;11930;53.076;18.250;2023-03-21T07:17:26;11.97;;;7.10;;
23506;SDS011;11930;53.076;18.250;2023-03-21T07:19:53;14.80;;;7.70;;
23506;SDS011;11930;53.076;18.250;2023-03-21T07:22:19;10.60;;;6.87;;
23506;SDS011;11930;53.076;18.250;2023-03-21T07:24:45;10.03;;;6.70;;
23506;SDS011;11930;53.076;18.250;2023-03-21T07:27:15;9.07;;;6.17;;
23506;SDS011;11930;53.076;18.250;2023-03-21T07:29:44;9.47;;;6.23;;
23506;SDS011;11930;53.076;18.250;2023-03-21T07:32:12;9.87;;;5.97;;
23506;SDS011;11930;53.076;18.250;2023-03-21T07:34:38;11.03;;;6.70;;
23506;SDS011;11930;53.076;18.250;2023-03-21T07:37:04;11.27;;;5.97;;
23506;SDS011;11930;53.076;18.250;2023-03-21T07:39:31;7.90;;;5.67;;
23506;SDS011;11930;53.076;18.250;2023-03-21T07:41:59;8.53;;;5.63;;
23506;SDS011;11930;53.076;18.250;2023-03-21T07:44:35;8.27;;;5.50;;
23506;SDS011;11930;53.076;18.250;2023-03-21T07:47:03;8.63;;;5.70;;
23506;SDS011;11930;53.076;18.250;2023-03-21T07:49:31;10.23;;;6.40;;
23506;SDS011;11930;53.076;18.250;2023-03-21T07:51:57;9.67;;;6.40;;
23506;SDS011;11930;53.076;18.250;2023-03-21T07:54:24;10.37;;;6.17;;
23506;SDS011;11930;53.076;18.250;2023-03-21T07:56:53;8.50;;;5.43;;
23506;SDS011;11930;53.076;18.250;2023-03-21T07:59:20;7.67;;;4.90;;
23506;SDS011;11930;53.076;18.250;2023-03-21T08:01:46;7.93;;;4.80;;
23506;SDS011;11930;53.076;18.250;2023-03-21T08:04:12;6.73;;;4.30;;
23506;SDS011;11930;53.076;18.250;2023-03-21T08:06:39;6.57;;;4.40;;
23506;SDS011;11930;53.076;18.250;2023-03-21T08:09:05;13.00;;;6.97;;
23506;SDS011;11930;53.076;18.250;2023-03-21T08:11:32;13.37;;;6.97;;
23506;SDS011;11930;53.076;18.250;2023-03-21T08:13:58;12.97;;;8.50;;
23506;SDS011;11930;53.076;18.250;2023-03-21T08:16:25;15.20;;;7.90;;
23506;SDS011;11930;53.076;18.250;2023-03-21T08:18:52;11.40;;;7.40;;
23506;SDS011;11930;53.076;18.250;2023-03-21T08:21:18;11.27;;;6.50;;
23506;SDS011;11930;53.076;18.250;2023-03-21T08:23:44;10.17;;;6.53;;
23506;SDS011;11930;53.076;18.250;2023-03-21T08:26:10;10.07;;;6.37;;
23506;SDS011;11930;53.076;18.250;2023-03-21T08:28:42;14.87;;;8.33;;
23506;SDS011;11930;53.076;18.250;2023-03-21T08:31:10;12.30;;;6.90;;
23506;SDS011;11930;53.076;18.250;2023-03-21T08:33:37;12.17;;;6.77;;
23506;SDS011;11930;53.076;18.250;2023-03-21T08:36:04;9.07;;;6.20;;
23506;SDS011;11930;53.076;18.250;2023-03-21T08:38:30;8.17;;;5.80;;
23506;SDS011;11930;53.076;18.250;2023-03-21T08:41:01;9.47;;;4.73;;
23506;SDS011;11930;53.076;18.250;2023-03-21T08:43:27;7.10;;;4.43;;
23506;SDS011;11930;53.076;18.250;2023-03-21T08:45:54;7.37;;;4.90;;
23506;SDS011;11930;53.076;18.250;2023-03-21T08:48:21;8.43;;;4.97;;
23506;SDS011;11930;53.076;18.250;2023-03-21T08:50:47;6.40;;;4.50;;
23506;SDS011;11930;53.076;18.250;2023-03-21T08:53:13;7.20;;;4.70;;
23506;SDS011;11930;53.076;18.250;2023-03-21T08:55:39;5.80;;;4.13;;
23506;SDS011;11930;53.076;18.250;2023-03-21T08:58:05;5.77;;;3.97;;
23506;SDS011;11930;53.076;18.250;2023-03-21T09:00:32;6.27;;;4.13;;
23506;SDS011;11930;53.076;18.250;2023-03-21T09:02:58;5.87;;;3.93;;
23506;SDS011;11930;53.076;18.250;2023-03-21T09:05:24;5.70;;;3.30;;
23506;SDS011;11930;53.076;18.250;2023-03-21T09:07:51;4.53;;;2.90;;
23506;SDS011;11930;53.076;18.250;2023-03-21T09:10:18;4.13;;;2.23;;
23506;SDS011;11930;53.076;18.250;2023-03-21T09:12:46;3.27;;;2.20;;
23506;SDS011;11930;53.076;18.250;2023-03-21T09:15:14;2.97;;;1.93;;
23506;SDS011;11930;53.076;18.250;2023-03-21T09:17:40;3.23;;;1.97;;
23506;SDS011;11930;53.076;18.250;2023-03-21T09:20:14;3.10;;;2.07;;
23506;SDS011;11930;53.076;18.250;2023-03-21T09:22:45;3.07;;;1.90;;
23506;SDS011;11930;53.076;18.250;2023-03-21T09:25:15;2.80;;;2.00;;
23506;SDS011;11930;53.076;18.250;2023-03-21T09:27:43;2.97;;;1.87;;
23506;SDS011;11930;53.076;18.250;2023-03-21T09:30:11;3.53;;;1.90;;
23506;SDS011;11930;53.076;18.250;2023-03-21T09:32:39;2.50;;;1.70;;
23506;SDS011;11930;53.076;18.250;2023-03-21T09:35:06;3.13;;;1.65;;
23506;SDS011;11930;53.076;18.250;2023-03-21T09:37:34;3.38;;;1.92;;
23506;SDS011;11930;53.076;18.250;2023-03-21T09:40:03;2.73;;;1.93;;
23506;SDS011;11930;53.076;18.250;2023-03-21T09:45:11;3.60;;;2.28;;
23506;SDS011;11930;53.076;18.250;2023-03-21T09:47:43;3.53;;;2.00;;
23506;SDS011;11930;53.076;18.250;2023-03-21T09:50:25;4.97;;;2.30;;
23506;SDS011;11930;53.076;18.250;2023-03-21T09:53:02;3.70;;;2.30;;
23506;SDS011;11930;53.076;18.250;2023-03-21T09:55:40;3.65;;;1.80;;
23506;SDS011;11930;53.076;18.250;2023-03-21T09:58:11;3.60;;;2.30;;
23506;SDS011;11930;53.076;18.250;2023-03-21T10:01:00;3.70;;;2.57;;
23506;SDS011;11930;53.076;18.250;2023-03-21T10:04:01;4.40;;;2.87;;
23506;SDS011;11930;53.076;18.250;2023-03-21T10:06:30;4.77;;;3.00;;
23506;SDS011;11930;53.076;18.250;2023-03-21T10:08:59;4.97;;;2.80;;
23506;SDS011;11930;53.076;18.250;2023-03-21T10:11:43;6.87;;;3.20;;
23506;SDS011;11930;53.076;18.250;2023-03-21T10:14:20;5.80;;;3.50;;
23506;SDS011;11930;53.076;18.250;2023-03-21T10:17:06;5.60;;;3.20;;
23506;SDS011;11930;53.076;18.250;2023-03-21T10:22:48;3.63;;;2.50;;
23506;SDS011;11930;53.076;18.250;2023-03-21T10:25:18;4.57;;;2.90;;
23506;SDS011;11930;53.076;18.250;2023-03-21T10:27:46;4.87;;;2.70;;
23506;SDS011;11930;53.076;18.250;2023-03-21T10:33:03;5.60;;;3.40;;
23506;SDS011;11930;53.076;18.250;2023-03-21T10:35:33;4.60;;;3.10;;
23506;SDS011;11930;53.076;18.250;2023-03-21T10:38:03;4.60;;;2.90;;
23506;SDS011;11930;53.076;18.250;2023-03-21T10:40:30;4.03;;;2.50;;
23506;SDS011;11930;53.076;18.250;2023-03-21T10:43:14;4.67;;;3.03;;
23506;SDS011;11930;53.076;18.250;2023-03-21T10:45:54;4.90;;;2.67;;
23506;SDS011;11930;53.076;18.250;2023-03-21T10:48:21;4.60;;;3.40;;
23506;SDS011;11930;53.076;18.250;2023-03-21T10:50:49;5.77;;;4.33;;
23506;SDS011;11930;53.076;18.250;2023-03-21T10:53:21;9.77;;;5.87;;
23506;SDS011;11930;53.076;18.250;2023-03-21T10:56:00;7.03;;;5.23;;
23506;SDS011;11930;53.076;18.250;2023-03-21T10:58:28;5.43;;;3.50;;
23506;SDS011;11930;53.076;18.250;2023-03-21T11:01:02;3.50;;;2.47;;
23506;SDS011;11930;53.076;18.250;2023-03-21T11:03:38;4.10;;;2.90;;
23506;SDS011;11930;53.076;18.250;2023-03-21T11:06:44;4.10;;;3.10;;
23506;SDS011;11930;53.076;18.250;2023-03-21T11:09:07;4.13;;;2.80;;
23506;SDS011;11930;53.076;18.250;2023-03-21T11:12:01;4.70;;;2.90;;
23506;SDS011;11930;53.076;18.250;2023-03-21T11:14:33;3.17;;;2.20;;
23506;SDS011;11930;53.076;18.250;2023-03-21T11:17:00;2.60;;;2.00;;
23506;SDS011;11930;53.076;18.250;2023-03-21T11:19:32;4.70;;;2.50;;
23506;SDS011;11930;53.076;18.250;2023-03-21T11:22:06;5.00;;;2.70;;
23506;SDS011;11930;53.076;18.250;2023-03-21T11:24:33;4.33;;;3.30;;
23506;SDS011;11930;53.076;18.250;2023-03-21T11:27:03;4.93;;;2.87;;
23506;SDS011;11930;53.076;18.250;2023-03-21T11:29:32;3.53;;;2.37;;
23506;SDS011;11930;53.076;18.250;2023-03-21T11:32:10;4.57;;;3.23;;
23506;SDS011;11930;53.076;18.250;2023-03-21T11:34:47;3.63;;;2.17;;
23506;SDS011;11930;53.076;18.250;2023-03-21T11:37:20;3.37;;;2.37;;
23506;SDS011;11930;53.076;18.250;2023-03-21T11:43:03;4.53;;;2.53;;
23506;SDS011;11930;53.076;18.250;2023-03-21T11:45:40;3.87;;;2.53;;
23506;SDS011;11930;53.076;18.250;2023-03-21T11:48:29;3.50;;;2.30;;
23506;SDS011;11930;53.076;18.250;2023-03-21T11:51:04;4.23;;;2.80;;
23506;SDS011;11930;53.076;18.250;2023-03-21T11:53:41;3.83;;;2.53;;
23506;SDS011;11930;53.076;18.250;2023-03-21T11:56:26;3.77;;;2.63;;
23506;SDS011;11930;53.076;18.250;2023-03-21T11:59:30;5.20;;;3.00;;
23506;SDS011;11930;53.076;18.250;2023-03-21T12:07:22;3.83;;;2.73;;
23506;SDS011;11930;53.076;18.250;2023-03-21T12:16:04;74.87;;;43.70;;
23506;SDS011;11930;53.076;18.250;2023-03-21T12:27:03;5.57;;;3.90;;
23506;SDS011;11930;53.076;18.250;2023-03-21T12:35:02;4.37;;;2.53;;
23506;SDS011;11930;53.076;18.250;2023-03-21T12:40:33;5.27;;;2.53;;
23506;SDS011;11930;53.076;18.250;2023-03-21T12:46:18;3.87;;;2.30;;
23506;SDS011;11930;53.076;18.250;2023-03-21T12:48:52;3.70;;;2.20;;
23506;SDS011;11930;53.076;18.250;2023-03-21T12:51:30;3.13;;;2.13;;
23506;SDS011;11930;53.076;18.250;2023-03-21T12:56:58;3.17;;;2.03;;
23506;SDS011;11930;53.076;18.250;2023-03-21T12:59:40;2.83;;;2.13;;
23506;SDS011;11930;53.076;18.250;2023-03-21T13:05:02;2.70;;;2.00;;
23506;SDS011;11930;53.076;18.250;2023-03-21T13:07:44;3.30;;;2.30;;
23506;SDS011;11930;53.076;18.250;2023-03-21T13:10:18;3.60;;;2.40;;
23506;SDS011;11930;53.076;18.250;2023-03-21T13:15:48;4.63;;;3.13;;
23506;SDS011;11930;53.076;18.250;2023-03-21T13:18:26;3.87;;;2.90;;
23506;SDS011;11930;53.076;18.250;2023-03-21T13:26:48;4.07;;;2.87;;
23506;SDS011;11930;53.076;18.250;2023-03-21T13:35:01;7.23;;;3.57;;
23506;SDS011;11930;53.076;18.250;2023-03-21T13:37:41;4.13;;;2.80;;
23506;SDS011;11930;53.076;18.250;2023-03-21T13:40:20;3.80;;;2.80;;
23506;SDS011;11930;53.076;18.250;2023-03-21T13:42:52;4.03;;;2.80;;
23506;SDS011;11930;53.076;18.250;2023-03-21T13:45:24;4.97;;;2.83;;
23506;SDS011;11930;53.076;18.250;2023-03-21T13:48:00;4.37;;;2.90;;
23506;SDS011;11930;53.076;18.250;2023-03-21T13:50:50;10.00;;;6.77;;
23506;SDS011;11930;53.076;18.250;2023-03-21T13:53:18;4.13;;;2.77;;
23506;SDS011;11930;53.076;18.250;2023-03-21T13:56:08;23.10;;;10.60;;
23506;SDS011;11930;53.076;18.250;2023-03-21T14:03:58;5.60;;;3.37;;
23506;SDS011;11930;53.076;18.250;2023-03-21T14:06:35;4.33;;;2.43;;
23506;SDS011;11930;53.076;18.250;2023-03-21T14:09:08;3.43;;;2.37;;
23506;SDS011;11930;53.076;18.250;2023-03-21T14:11:45;5.33;;;3.20;;
23506;SDS011;11930;53.076;18.250;2023-03-21T14:14:13;5.53;;;3.37;;
23506;SDS011;11930;53.076;18.250;2023-03-21T14:16:40;5.70;;;3.40;;
23506;SDS011;11930;53.076;18.250;2023-03-21T14:19:08;4.73;;;2.70;;
23506;SDS011;11930;53.076;18.250;2023-03-21T14:21:36;14.67;;;10.20;;
23506;SDS011;11930;53.076;18.250;2023-03-21T14:24:03;10.73;;;6.93;;
23506;SDS011;11930;53.076;18.250;2023-03-21T14:26:33;5.13;;;3.20;;
23506;SDS011;11930;53.076;18.250;2023-03-21T14:29:05;3.80;;;2.33;;
23506;SDS011;11930;53.076;18.250;2023-03-21T14:31:33;4.37;;;2.47;;
23506;SDS011;11930;53.076;18.250;2023-03-21T14:34:00;3.60;;;2.27;;
23506;SDS011;11930;53.076;18.250;2023-03-21T14:36:29;7.10;;;4.33;;
23506;SDS011;11930;53.076;18.250;2023-03-21T14:39:05;7.37;;;3.40;;
23506;SDS011;11930;53.076;18.250;2023-03-21T14:41:50;6.30;;;3.00;;
23506;SDS011;11930;53.076;18.250;2023-03-21T14:44:19;4.23;;;2.70;;
23506;SDS011;11930;53.076;18.250;2023-03-21T14:46:52;5.13;;;2.97;;
23506;SDS011;11930;53.076;18.250;2023-03-21T14:49:30;4.00;;;2.30;;
23506;SDS011;11930;53.076;18.250;2023-03-21T14:52:05;2.53;;;1.60;;
23506;SDS011;11930;53.076;18.250;2023-03-21T14:54:37;2.20;;;1.60;;
23506;SDS011;11930;53.076;18.250;2023-03-21T14:57:09;3.87;;;1.87;;
23506;SDS011;11930;53.076;18.250;2023-03-21T14:59:38;2.40;;;1.70;;
23506;SDS011;11930;53.076;18.250;2023-03-21T15:05:05;2.87;;;1.60;;
23506;SDS011;11930;53.076;18.250;2023-03-21T15:07:54;2.83;;;1.70;;
23506;SDS011;11930;53.076;18.250;2023-03-21T15:10:24;3.33;;;1.77;;
23506;SDS011;11930;53.076;18.250;2023-03-21T15:12:53;2.93;;;1.90;;
23506;SDS011;11930;53.076;18.250;2023-03-21T15:15:21;2.90;;;1.70;;
23506;SDS011;11930;53.076;18.250;2023-03-21T15:17:49;2.33;;;1.40;;
23506;SDS011;11930;53.076;18.250;2023-03-21T15:20:21;2.97;;;1.50;;
23506;SDS011;11930;53.076;18.250;2023-03-21T15:22:53;2.57;;;1.63;;
23506;SDS011;11930;53.076;18.250;2023-03-21T15:25:21;2.87;;;1.67;;
23506;SDS011;11930;53.076;18.250;2023-03-21T15:27:54;2.57;;;1.57;;
23506;SDS011;11930;53.076;18.250;2023-03-21T15:30:27;2.40;;;1.57;;
23506;SDS011;11930;53.076;18.250;2023-03-21T15:32:55;2.47;;;1.40;;
23506;SDS011;11930;53.076;18.250;2023-03-21T15:35:27;3.10;;;2.10;;
23506;SDS011;11930;53.076;18.250;2023-03-21T15:37:59;3.23;;;1.73;;
23506;SDS011;11930;53.076;18.250;2023-03-21T15:40:27;2.70;;;1.77;;
23506;SDS011;11930;53.076;18.250;2023-03-21T15:43:14;2.77;;;1.70;;
23506;SDS011;11930;53.076;18.250;2023-03-21T15:45:46;2.30;;;1.47;;
23506;SDS011;11930;53.076;18.250;2023-03-21T15:48:13;2.27;;;1.53;;
23506;SDS011;11930;53.076;18.250;2023-03-21T15:50:40;2.70;;;1.77;;
23506;SDS011;11930;53.076;18.250;2023-03-21T15:53:13;3.30;;;2.30;;
23506;SDS011;11930;53.076;18.250;2023-03-21T15:58:44;3.50;;;2.40;;
23506;SDS011;11930;53.076;18.250;2023-03-21T16:01:16;4.07;;;2.50;;
23506;SDS011;11930;53.076;18.250;2023-03-21T16:03:46;5.07;;;3.23;;
23506;SDS011;11930;53.076;18.250;2023-03-21T16:06:15;6.23;;;3.13;;
23506;SDS011;11930;53.076;18.250;2023-03-21T16:08:52;6.63;;;3.40;;
23506;SDS011;11930;53.076;18.250;2023-03-21T16:11:46;6.87;;;3.13;;
23506;SDS011;11930;53.076;18.250;2023-03-21T16:14:34;9.73;;;5.10;;
23506;SDS011;11930;53.076;18.250;2023-03-21T16:17:00;8.03;;;4.17;;
23506;SDS011;11930;53.076;18.250;2023-03-21T16:19:47;6.50;;;3.10;;
23506;SDS011;11930;53.076;18.250;2023-03-21T16:22:13;4.80;;;2.60;;
23506;SDS011;11930;53.076;18.250;2023-03-21T16:24:40;6.63;;;3.17;;
23506;SDS011;11930;53.076;18.250;2023-03-21T16:27:08;9.13;;;4.60;;
23506;SDS011;11930;53.076;18.250;2023-03-21T16:29:36;8.57;;;5.00;;
23506;SDS011;11930;53.076;18.250;2023-03-21T16:32:05;10.27;;;4.80;;
23506;SDS011;11930;53.076;18.250;2023-03-21T16:34:40;6.67;;;4.00;;
23506;SDS011;11930;53.076;18.250;2023-03-21T16:37:10;9.50;;;4.20;;
23506;SDS011;11930;53.076;18.250;2023-03-21T16:39:37;8.07;;;4.40;;
23506;SDS011;11930;53.076;18.250;2023-03-21T16:42:03;5.93;;;3.73;;
23506;SDS011;11930;53.076;18.250;2023-03-21T16:44:30;7.17;;;4.07;;
23506;SDS011;11930;53.076;18.250;2023-03-21T16:46:56;6.10;;;3.60;;
23506;SDS011;11930;53.076;18.250;2023-03-21T16:49:23;6.97;;;4.10;;
23506;SDS011;11930;53.076;18.250;2023-03-21T16:51:51;7.57;;;4.40;;
23506;SDS011;11930;53.076;18.250;2023-03-21T16:54:19;8.60;;;4.13;;
23506;SDS011;11930;53.076;18.250;2023-03-21T16:56:46;6.80;;;4.10;;
23506;SDS011;11930;53.076;18.250;2023-03-21T16:59:16;9.37;;;5.53;;
23506;SDS011;11930;53.076;18.250;2023-03-21T17:01:42;7.93;;;4.50;;
23506;SDS011;11930;53.076;18.250;2023-03-21T17:04:11;8.27;;;4.60;;
23506;SDS011;11930;53.076;18.250;2023-03-21T17:06:40;7.90;;;4.50;;
23506;SDS011;11930;53.076;18.250;2023-03-21T17:09:12;8.80;;;3.70;;
23506;SDS011;11930;53.076;18.250;2023-03-21T17:11:40;6.77;;;3.70;;
23506;SDS011;11930;53.076;18.250;2023-03-21T17:14:10;7.13;;;4.40;;
23506;SDS011;11930;53.076;18.250;2023-03-21T17:16:37;6.67;;;3.83;;
23506;SDS011;11930;53.076;18.250;2023-03-21T17:19:11;5.57;;;2.93;;
23506;SDS011;11930;53.076;18.250;2023-03-21T17:21:44;6.67;;;3.53;;